Time;durP1;ratioP1;P1;durP2;ratioP2;P2;SDS_P1;SDS_P2;PMS_P1;PMS_P2;Temp;Humidity;BMP_temperature;BMP_pressure;BME280_temperature;BME280_humidity;BME280_pressure;Samples;Min_cycle;Max_cycle;Signal;HPM_P1;HPM_P2
2023/12/18 00:04:03;;;;;;;1.33;0.93;;;;;;;;;;10366647;28;20193;-76
2023/12/18 00:09:03;;;;;;;0.80;0.80;;;;;;;;;;10366495;28;20291;-76
2023/12/18 00:14:04;;;;;;;1.03;0.90;;;;;;;;;;10365483;28;20494;-76
2023/12/18 00:19:07;;;;;;;1.00;0.90;;;;;;;;;;10366174;28;20671;-76
2023/12/18 00:24:07;;;;;;;1.07;1.07;;;;;;;;;;10362108;28;20234;-76
2023/12/18 00:29:07;;;;;;;0.80;0.80;;;;;;;;;;10366106;28;20332;-76
2023/12/18 00:34:07;;;;;;;0.80;0.80;;;;;;;;;;10365393;28;20643;-76
2023/12/18 00:39:08;;;;;;;0.80;0.80;;;;;;;;;;10365231;28;20224;-76
2023/12/18 00:44:08;;;;;;;0.83;0.83;;;;;;;;;;10365178;28;20265;-76
2023/12/18 00:49:09;;;;;;;0.93;0.80;;;;;;;;;;10365832;28;20197;-74
2023/12/18 00:54:09;;;;;;;0.70;0.70;;;;;;;;;;10364947;28;20217;-74
2023/12/18 00:59:09;;;;;;;0.93;0.80;;;;;;;;;;10359934;28;20315;-74
2023/12/18 01:04:09;;;;;;;0.80;0.80;;;;;;;;;;10364646;28;20276;-75
2023/12/18 01:09:10;;;;;;;0.77;0.77;;;;;;;;;;10364237;28;20681;-74
2023/12/18 01:14:10;;;;;;;0.80;0.80;;;;;;;;;;10364241;28;20204;-74
2023/12/18 01:19:10;;;;;;;0.63;0.63;;;;;;;;;;10362319;28;20225;-74
2023/12/18 01:24:10;;;;;;;2.47;0.87;;;;;;;;;;10361764;28;20201;-74
2023/12/18 01:29:11;;;;;;;1.07;0.80;;;;;;;;;;10361196;28;20720;-74
2023/12/18 01:34:11;;;;;;;0.63;0.63;;;;;;;;;;10363422;28;20577;-74
2023/12/18 01:39:11;;;;;;;0.90;0.90;;;;;;;;;;10362374;28;20217;-75
2023/12/18 01:44:11;;;;;;;0.80;0.80;;;;;;;;;;10363121;28;20224;-74
2023/12/18 01:49:12;;;;;;;0.70;0.70;;;;;;;;;;10360385;28;20200;-75
2023/12/18 01:54:12;;;;;;;0.80;0.80;;;;;;;;;;10361884;28;20259;-74
2023/12/18 01:59:13;;;;;;;0.70;0.70;;;;;;;;;;10362083;28;20845;-74
2023/12/18 02:04:14;;;;;;;0.80;0.80;;;;;;;;;;10360052;28;20327;-74
2023/12/18 02:09:15;;;;;;;0.70;0.70;;;;;;;;;;10362946;28;20190;-74
2023/12/18 02:14:15;;;;;;;1.00;0.90;;;;;;;;;;10361366;28;20628;-74
2023/12/18 02:19:25;;;;;;;0.70;0.70;;;;;;;;;;10361683;28;20209;-74
2023/12/18 02:24:25;;;;;;;0.70;0.70;;;;;;;;;;10361645;28;20247;-74
2023/12/18 02:29:25;;;;;;;0.70;0.70;;;;;;;;;;10361402;28;20652;-74
2023/12/18 02:34:26;;;;;;;0.70;0.70;;;;;;;;;;10360222;28;20185;-74
2023/12/18 02:39:26;;;;;;;1.30;0.80;;;;;;;;;;10361386;28;20239;-74
2023/12/18 02:44:26;;;;;;;0.80;0.63;;;;;;;;;;10361506;28;20177;-74
2023/12/18 02:49:26;;;;;;;0.57;0.57;;;;;;;;;;10361296;28;20710;-74
2023/12/18 02:54:27;;;;;;;0.60;0.60;;;;;;;;;;10355391;28;20193;-74
2023/12/18 02:59:27;;;;;;;0.50;0.50;;;;;;;;;;10352036;28;20220;-74
2023/12/18 03:04:27;;;;;;;0.60;0.60;;;;;;;;;;10359411;28;20280;-76
2023/12/18 03:09:27;;;;;;;0.87;0.70;;;;;;;;;;10359744;28;20201;-76
2023/12/18 03:14:27;;;;;;;0.70;0.70;;;;;;;;;;10360034;28;20196;-76
2023/12/18 03:19:28;;;;;;;0.80;0.80;;;;;;;;;;10359589;28;20255;-76
2023/12/18 03:24:28;;;;;;;0.60;0.60;;;;;;;;;;10352992;28;20703;-76
2023/12/18 03:29:28;;;;;;;0.60;0.60;;;;;;;;;;10359153;28;20244;-76
2023/12/18 03:34:28;;;;;;;0.70;0.70;;;;;;;;;;10354764;28;20193;-76
2023/12/18 03:39:28;;;;;;;0.70;0.70;;;;;;;;;;10349649;28;20596;-74
2023/12/18 03:44:28;;;;;;;0.70;0.70;;;;;;;;;;10356798;28;20533;-74
2023/12/18 03:49:29;;;;;;;0.60;0.60;;;;;;;;;;10362568;28;20344;-74
2023/12/18 03:54:29;;;;;;;18.33;9.67;;;;;;;;;;10359287;28;20696;-73
2023/12/18 03:59:29;;;;;;;0.70;0.70;;;;;;;;;;10364731;28;20243;-74
2023/12/18 04:04:29;;;;;;;0.60;0.60;;;;;;;;;;10365076;28;20178;-73
2023/12/18 04:09:29;;;;;;;0.73;0.73;;;;;;;;;;10365305;28;20706;-74
2023/12/18 04:14:30;;;;;;;2.00;0.87;;;;;;;;;;10364547;28;20655;-74
2023/12/18 04:19:30;;;;;;;0.60;0.60;;;;;;;;;;10365095;28;20213;-74
2023/12/18 04:24:30;;;;;;;0.80;0.80;;;;;;;;;;10364434;28;20182;-75
2023/12/18 04:29:30;;;;;;;0.80;0.80;;;;;;;;;;10364429;28;20233;-74
2023/12/18 04:34:30;;;;;;;0.80;0.80;;;;;;;;;;10363424;28;20193;-75
2023/12/18 04:39:31;;;;;;;1.23;0.93;;;;;;;;;;10364674;28;20217;-75
2023/12/18 04:44:32;;;;;;;0.80;0.80;;;;;;;;;;10362149;28;20181;-75
2023/12/18 04:49:32;;;;;;;0.93;0.90;;;;;;;;;;10358544;28;20243;-75
2023/12/18 04:54:32;;;;;;;1.60;1.50;;;;;;;;;;10354743;28;20193;-75
2023/12/18 04:59:32;;;;;;;2.93;1.83;;;;;;;;;;10361403;28;20217;-75
2023/12/18 05:04:32;;;;;;;2.10;1.43;;;;;;;;;;10363003;28;20205;-75
2023/12/18 05:09:32;;;;;;;1.50;1.20;;;;;;;;;;10363004;28;20556;-75
2023/12/18 05:14:33;;;;;;;2.83;1.90;;;;;;;;;;10362516;28;20730;-75
2023/12/18 05:19:33;;;;;;;3.50;2.70;;;;;;;;;;10362766;28;20267;-75
2023/12/18 05:24:33;;;;;;;2.00;1.80;;;;;;;;;;10361869;28;20189;-75
2023/12/18 05:29:33;;;;;;;1.47;1.20;;;;;;;;;;10361812;28;20229;-75
2023/12/18 05:34:34;;;;;;;0.80;0.80;;;;;;;;;;10361403;28;20193;-75
2023/12/18 05:39:34;;;;;;;0.70;0.70;;;;;;;;;;10362165;28;20232;-75
2023/12/18 05:44:34;;;;;;;0.70;0.70;;;;;;;;;;10375984;28;20268;-74
2023/12/18 05:49:34;;;;;;;0.90;0.90;;;;;;;;;;10361658;28;20643;-74
2023/12/18 05:54:37;;;;;;;0.80;0.80;;;;;;;;;;10360943;28;20197;-75
2023/12/18 05:59:37;;;;;;;1.13;0.80;;;;;;;;;;10360822;28;20239;-74
2023/12/18 06:04:41;;;;;;;0.70;0.70;;;;;;;;;;10360496;28;20199;-74
2023/12/18 06:09:41;;;;;;;2.13;0.90;;;;;;;;;;10359879;28;20785;-74
2023/12/18 06:14:41;;;;;;;0.73;0.70;;;;;;;;;;10359985;28;20193;-74
2023/12/18 06:19:43;;;;;;;0.83;0.83;;;;;;;;;;10360340;28;20221;-75
2023/12/18 06:24:44;;;;;;;0.70;0.70;;;;;;;;;;10359637;28;20232;-74
2023/12/18 06:29:44;;;;;;;0.73;0.73;;;;;;;;;;10359822;28;20259;-74
2023/12/18 06:34:44;;;;;;;0.80;0.80;;;;;;;;;;10360019;28;20193;-74
2023/12/18 06:39:45;;;;;;;0.83;0.83;;;;;;;;;;10359363;28;20267;-74
2023/12/18 06:44:45;;;;;;;0.87;0.87;;;;;;;;;;10330171;28;20496;-74
2023/12/18 06:49:45;;;;;;;1.80;1.70;;;;;;;;;;10311518;28;20201;-74
2023/12/18 06:54:46;;;;;;;16.33;10.70;;;;;;;;;;10316717;28;20190;-74
2023/12/18 06:59:46;;;;;;;1.20;1.10;;;;;;;;;;10317449;28;20229;-74
2023/12/18 07:04:46;;;;;;;0.90;0.90;;;;;;;;;;10346090;28;20198;-74
2023/12/18 07:09:46;;;;;;;0.93;0.93;;;;;;;;;;10359211;28;20320;-74
2023/12/18 07:14:47;;;;;;;0.90;0.90;;;;;;;;;;10352262;28;20575;-74
2023/12/18 07:19:47;;;;;;;1.53;0.77;;;;;;;;;;10358920;28;20237;-74
2023/12/18 07:24:48;;;;;;;1.00;1.00;;;;;;;;;;10366022;28;20197;-74
2023/12/18 07:29:48;;;;;;;0.80;0.80;;;;;;;;;;10365496;28;20484;-74
2023/12/18 07:34:48;;;;;;;0.80;0.80;;;;;;;;;;10364521;28;20206;-74
2023/12/18 07:39:48;;;;;;;0.70;0.70;;;;;;;;;;10362925;28;20245;-74
2023/12/18 07:44:49;;;;;;;2.53;0.93;;;;;;;;;;10365886;28;20201;-74
2023/12/18 07:49:49;;;;;;;0.67;0.67;;;;;;;;;;10364336;28;20202;-74
2023/12/18 07:54:49;;;;;;;0.70;0.70;;;;;;;;;;10365133;28;20197;-74
2023/12/18 07:59:49;;;;;;;0.70;0.70;;;;;;;;;;10326902;28;20616;-74
2023/12/18 08:04:50;;;;;;;0.70;0.70;;;;;;;;;;10364954;28;20186;-75
2023/12/18 08:09:51;;;;;;;1.40;1.00;;;;;;;;;;10364876;28;20880;-74
2023/12/18 08:14:51;;;;;;;0.80;0.80;;;;;;;;;;10365150;28;20201;-74
2023/12/18 08:19:51;;;;;;;0.70;0.70;;;;;;;;;;10365231;28;20371;-74
2023/12/18 08:24:51;;;;;;;0.70;0.70;;;;;;;;;;10364258;28;20360;-74
2023/12/18 08:29:52;;;;;;;0.80;0.80;;;;;;;;;;10355817;28;20295;-75
2023/12/18 08:34:52;;;;;;;1.27;1.17;;;;;;;;;;10362981;28;20213;-74
2023/12/18 08:39:52;;;;;;;1.02;1.02;;;;;;;;;;10365198;28;20472;-75
2023/12/18 08:44:53;;;;;;;1.00;0.88;;;;;;;;;;10362913;28;21078;-74
2023/12/18 08:49:54;;;;;;;0.60;0.60;;;;;;;;;;10344359;28;20214;-74
2023/12/18 08:54:54;;;;;;;0.80;0.80;;;;;;;;;;10334123;28;20203;-75
2023/12/18 08:59:55;;;;;;;1.35;1.00;;;;;;;;;;10349475;28;20571;-75
2023/12/18 09:04:55;;;;;;;1.23;1.13;;;;;;;;;;10346577;28;20205;-74
2023/12/18 09:09:55;;;;;;;1.27;0.82;;;;;;;;;;10315962;28;20587;-74
2023/12/18 09:14:55;;;;;;;0.70;0.70;;;;;;;;;;10315150;28;20186;-76
2023/12/18 09:19:56;;;;;;;0.80;0.80;;;;;;;;;;10314600;28;20312;-74
2023/12/18 09:24:56;;;;;;;0.60;0.60;;;;;;;;;;10319257;28;20217;-74
2023/12/18 09:29:56;;;;;;;0.68;0.68;;;;;;;;;;10320414;28;20828;-75
2023/12/18 09:34:56;;;;;;;0.90;0.90;;;;;;;;;;10329703;28;20211;-76
2023/12/18 09:39:57;;;;;;;0.90;0.82;;;;;;;;;;10353727;28;20240;-75
2023/12/18 09:44:57;;;;;;;1.00;1.00;;;;;;;;;;10361801;28;20192;-76
2023/12/18 09:49:58;;;;;;;1.13;0.93;;;;;;;;;;10361094;28;20687;-75
2023/12/18 09:54:59;;;;;;;0.90;0.80;;;;;;;;;;10361419;28;20197;-76
2023/12/18 09:59:59;;;;;;;0.80;0.80;;;;;;;;;;10357688;28;20220;-76
2023/12/18 10:04:59;;;;;;;1.13;0.73;;;;;;;;;;10360338;28;20185;-76
2023/12/18 10:10:00;;;;;;;1.23;1.08;;;;;;;;;;10353447;28;20185;-77
2023/12/18 10:15:00;;;;;;;1.35;0.80;;;;;;;;;;10357715;28;20545;-76
2023/12/18 10:20:03;;;;;;;1.10;1.00;;;;;;;;;;10360944;28;20209;-76
2023/12/18 10:25:04;;;;;;;1.25;1.15;;;;;;;;;;10360895;28;20679;-77
2023/12/18 10:30:06;;;;;;;1.30;1.20;;;;;;;;;;10360697;28;20240;-77
2023/12/18 10:35:06;;;;;;;1.65;0.95;;;;;;;;;;10358456;28;20674;-76
2023/12/18 10:40:07;;;;;;;1.23;1.13;;;;;;;;;;10358485;28;20220;-76
2023/12/18 10:45:08;;;;;;;0.95;0.95;;;;;;;;;;10361840;28;20181;-76
2023/12/18 10:50:10;;;;;;;2.17;1.02;;;;;;;;;;10359756;28;20582;-76
2023/12/18 10:55:11;;;;;;;0.90;0.90;;;;;;;;;;10365516;28;20197;-76
2023/12/18 11:00:14;;;;;;;0.85;0.85;;;;;;;;;;10370558;28;20241;-76
2023/12/18 11:05:14;;;;;;;1.23;1.00;;;;;;;;;;10371310;28;20570;-75
2023/12/18 11:10:15;;;;;;;1.23;1.13;;;;;;;;;;10370186;28;20277;-75
2023/12/18 11:15:24;;;;;;;1.27;1.00;;;;;;;;;;10373572;28;20807;-75
2023/12/18 11:20:26;;;;;;;1.17;1.10;;;;;;;;;;10368034;28;20316;-75
2023/12/18 11:25:27;;;;;;;1.60;1.23;;;;;;;;;;10369715;28;20339;-74
2023/12/18 11:30:28;;;;;;;2.10;1.30;;;;;;;;;;10365504;28;20242;-74
2023/12/18 11:35:30;;;;;;;1.00;1.00;;;;;;;;;;10371655;28;20316;-74
2023/12/18 11:40:36;;;;;;;1.08;1.00;;;;;;;;;;10369204;28;20240;-74
2023/12/18 11:45:41;;;;;;;1.17;0.90;;;;;;;;;;10363299;28;20189;-74
2023/12/18 11:50:41;;;;;;;1.30;1.08;;;;;;;;;;10369248;28;20549;-74
2023/12/18 11:55:41;;;;;;;1.25;1.15;;;;;;;;;;10368082;28;20177;-74
2023/12/18 12:00:41;;;;;;;1.10;0.95;;;;;;;;;;10367684;28;20567;-73
2023/12/18 12:05:43;;;;;;;1.55;1.20;;;;;;;;;;10330160;28;20197;-73
2023/12/18 12:10:46;;;;;;;0.90;0.90;;;;;;;;;;10328285;28;20186;-74
2023/12/18 12:15:57;;;;;;;2.03;1.60;;;;;;;;;;10360463;28;20281;-74
2023/12/18 12:20:57;;;;;;;1.88;1.10;;;;;;;;;;10361882;28;20194;-74
2023/12/18 12:25:58;;;;;;;2.47;1.20;;;;;;;;;;10361059;28;20228;-74
2023/12/18 12:30:59;;;;;;;1.10;0.95;;;;;;;;;;10361678;28;20201;-74
2023/12/18 12:36:01;;;;;;;1.10;1.02;;;;;;;;;;10356075;28;20242;-74
2023/12/18 12:41:02;;;;;;;1.60;1.20;;;;;;;;;;10361469;28;20444;-75
2023/12/18 12:46:02;;;;;;;1.13;1.13;;;;;;;;;;10360287;28;20186;-75
2023/12/18 12:51:03;;;;;;;1.48;0.85;;;;;;;;;;10356981;28;20212;-74
2023/12/18 12:56:03;;;;;;;1.30;1.20;;;;;;;;;;10357857;28;20372;-75
2023/12/18 13:01:06;;;;;;;1.83;1.25;;;;;;;;;;10356048;28;20193;-74
2023/12/18 13:06:08;;;;;;;1.00;0.90;;;;;;;;;;10355275;28;20491;-74
2023/12/18 13:11:08;;;;;;;0.80;0.80;;;;;;;;;;10356857;28;20181;-74
2023/12/18 13:16:09;;;;;;;0.80;0.80;;;;;;;;;;10359367;28;20243;-74
2023/12/18 13:21:09;;;;;;;1.48;0.80;;;;;;;;;;10354647;28;20194;-74
2023/12/18 13:26:10;;;;;;;1.20;0.90;;;;;;;;;;10358344;28;20241;-74
2023/12/18 13:31:11;;;;;;;0.90;0.90;;;;;;;;;;10359766;28;20232;-75
2023/12/18 13:36:12;;;;;;;1.65;0.90;;;;;;;;;;10358475;28;20307;-73
2023/12/18 13:41:12;;;;;;;1.27;0.80;;;;;;;;;;10356581;28;20193;-74
2023/12/18 13:46:12;;;;;;;0.90;0.90;;;;;;;;;;10358696;28;20224;-74
2023/12/18 13:51:12;;;;;;;0.90;0.90;;;;;;;;;;10352886;28;20688;-74
2023/12/18 13:56:13;;;;;;;1.08;0.98;;;;;;;;;;10357638;28;20304;-73
2023/12/18 14:01:13;;;;;;;0.90;0.90;;;;;;;;;;10358266;28;20191;-73
2023/12/18 14:06:13;;;;;;;1.10;1.00;;;;;;;;;;10358094;28;20656;-73
2023/12/18 14:11:14;;;;;;;9.15;4.85;;;;;;;;;;10357289;28;20207;-73
2023/12/18 14:16:15;;;;;;;2.13;2.03;;;;;;;;;;10357504;28;20229;-73
2023/12/18 14:21:16;;;;;;;1.40;1.33;;;;;;;;;;10357620;28;20193;-74
2023/12/18 14:26:16;;;;;;;1.35;1.25;;;;;;;;;;10352480;28;20289;-74
2023/12/18 14:31:16;;;;;;;1.43;1.33;;;;;;;;;;10360198;28;20288;-74
2023/12/18 14:36:16;;;;;;;1.00;1.00;;;;;;;;;;10360861;28;20225;-74
2023/12/18 14:41:17;;;;;;;4.27;2.60;;;;;;;;;;10356969;28;20276;-74
2023/12/18 14:46:18;;;;;;;8.73;6.47;;;;;;;;;;10358247;28;20462;-74
2023/12/18 14:51:18;;;;;;;2.03;1.60;;;;;;;;;;10343149;28;20316;-74
2023/12/18 14:56:18;;;;;;;1.70;1.60;;;;;;;;;;10336230;28;20309;-74
2023/12/18 15:01:18;;;;;;;2.80;2.50;;;;;;;;;;10338013;28;20190;-74
2023/12/18 15:06:19;;;;;;;2.27;2.00;;;;;;;;;;10337467;28;20190;-74
2023/12/18 15:11:19;;;;;;;2.53;1.80;;;;;;;;;;10337078;28;20205;-74
2023/12/18 15:16:20;;;;;;;78.15;40.08;;;;;;;;;;10356011;28;20217;-74
2023/12/18 15:21:20;;;;;;;16.57;9.03;;;;;;;;;;10352482;28;20280;-74
2023/12/18 15:26:20;;;;;;;13.07;10.40;;;;;;;;;;10355145;28;20240;-74
2023/12/18 15:31:20;;;;;;;4.97;3.10;;;;;;;;;;10340436;28;20221;-74
2023/12/18 15:36:21;;;;;;;3.53;2.80;;;;;;;;;;10348914;28;20232;-74
2023/12/18 15:41:21;;;;;;;6.13;2.50;;;;;;;;;;10358192;28;20962;-74
2023/12/18 15:46:21;;;;;;;2.87;1.93;;;;;;;;;;10362850;28;20259;-74
2023/12/18 15:51:21;;;;;;;4.23;1.50;;;;;;;;;;10363156;28;20205;-74
2023/12/18 15:56:22;;;;;;;3.77;1.70;;;;;;;;;;10343572;28;21179;-75
2023/12/18 16:01:25;;;;;;;1.93;1.60;;;;;;;;;;10343528;28;20197;-75
2023/12/18 16:06:25;;;;;;;3.43;1.50;;;;;;;;;;10344826;28;20655;-75
2023/12/18 16:11:25;;;;;;;2.13;1.73;;;;;;;;;;10358508;28;20182;-75
2023/12/18 16:16:25;;;;;;;1.37;1.27;;;;;;;;;;10361013;28;20275;-75
2023/12/18 16:21:25;;;;;;;1.63;1.40;;;;;;;;;;10359227;28;20208;-74
2023/12/18 16:26:26;;;;;;;1.77;1.43;;;;;;;;;;10363418;28;20721;-74
2023/12/18 16:31:26;;;;;;;1.77;1.50;;;;;;;;;;10360633;28;20189;-75
2023/12/18 16:36:27;;;;;;;1.73;1.37;;;;;;;;;;10364189;28;20702;-74
2023/12/18 16:41:30;;;;;;;1.67;1.40;;;;;;;;;;10359921;28;20973;-74
2023/12/18 16:46:30;;;;;;;2.00;1.60;;;;;;;;;;10360078;28;20684;-73
2023/12/18 16:51:31;;;;;;;1.63;1.33;;;;;;;;;;10356477;28;20201;-74
2023/12/18 16:56:31;;;;;;;1.83;1.60;;;;;;;;;;10359498;28;20228;-74
2023/12/18 17:01:31;;;;;;;1.53;1.40;;;;;;;;;;10359481;28;20185;-73
2023/12/18 17:06:31;;;;;;;2.97;1.50;;;;;;;;;;10363109;28;20668;-74
2023/12/18 17:11:32;;;;;;;1.33;1.20;;;;;;;;;;10363389;28;20197;-74
2023/12/18 17:16:33;;;;;;;2.73;1.40;;;;;;;;;;10362449;28;20217;-74
2023/12/18 17:21:34;;;;;;;2.13;1.30;;;;;;;;;;10359054;28;20185;-74
2023/12/18 17:26:34;;;;;;;1.63;1.53;;;;;;;;;;10340535;28;20696;-74
2023/12/18 17:31:35;;;;;;;1.00;1.00;;;;;;;;;;10311676;28;20190;-74
2023/12/18 17:36:35;;;;;;;3.50;1.27;;;;;;;;;;10318325;28;20648;-74
2023/12/18 17:41:38;;;;;;;1.57;1.47;;;;;;;;;;10322281;28;20192;-75
2023/12/18 17:46:39;;;;;;;2.20;1.57;;;;;;;;;;10334250;28;21048;-74
2023/12/18 17:51:39;;;;;;;1.47;1.30;;;;;;;;;;10323883;28;20201;-74
2023/12/18 17:56:39;;;;;;;1.43;1.33;;;;;;;;;;10302889;28;20520;-74
2023/12/18 18:01:39;;;;;;;1.60;1.37;;;;;;;;;;10320938;28;20198;-74
2023/12/18 18:06:39;;;;;;;1.40;1.30;;;;;;;;;;10320056;28;20200;-74
2023/12/18 18:11:40;;;;;;;1.40;1.13;;;;;;;;;;10320515;28;20197;-74
2023/12/18 18:16:40;;;;;;;1.97;1.40;;;;;;;;;;10320257;28;20268;-74
2023/12/18 18:21:40;;;;;;;1.27;1.17;;;;;;;;;;10319806;28;20190;-74
2023/12/18 18:26:41;;;;;;;1.40;1.30;;;;;;;;;;10327876;28;20232;-74
2023/12/18 18:31:41;;;;;;;2.40;1.93;;;;;;;;;;10359865;28;20212;-74
2023/12/18 18:36:43;;;;;;;3.47;2.90;;;;;;;;;;10359641;28;20271;-73
2023/12/18 18:41:44;;;;;;;1.47;1.20;;;;;;;;;;10360728;28;20213;-74
2023/12/18 18:46:48;;;;;;;1.70;1.60;;;;;;;;;;10358952;28;20292;-73
2023/12/18 18:51:49;;;;;;;2.03;1.40;;;;;;;;;;10360554;28;20284;-74
2023/12/18 18:56:49;;;;;;;1.40;1.30;;;;;;;;;;10360176;28;20308;-74
2023/12/18 19:01:49;;;;;;;1.77;1.30;;;;;;;;;;10360259;28;20190;-74
2023/12/18 19:06:49;;;;;;;16.80;9.77;;;;;;;;;;10360075;28;20232;-74
2023/12/18 19:11:50;;;;;;;3.67;3.37;;;;;;;;;;10359457;28;20182;-74
2023/12/18 19:16:50;;;;;;;1.80;1.70;;;;;;;;;;10362241;28;20621;-74
2023/12/18 19:21:50;;;;;;;2.00;1.80;;;;;;;;;;10366129;28;20553;-74
2023/12/18 19:26:50;;;;;;;2.10;1.90;;;;;;;;;;10368433;28;20240;-75
2023/12/18 19:31:50;;;;;;;0.90;0.90;;;;;;;;;;10367634;28;20186;-74
2023/12/18 19:36:51;;;;;;;1.40;1.30;;;;;;;;;;10366593;28;20864;-74
2023/12/18 19:41:51;;;;;;;1.20;1.10;;;;;;;;;;10366520;28;20516;-74
2023/12/18 19:46:52;;;;;;;1.30;1.20;;;;;;;;;;10365636;28;20197;-74
2023/12/18 19:51:52;;;;;;;1.10;1.10;;;;;;;;;;10366013;28;20278;-74
2023/12/18 19:56:52;;;;;;;1.80;1.60;;;;;;;;;;10365433;28;20560;-74
2023/12/18 20:01:52;;;;;;;1.88;1.67;;;;;;;;;;10365636;28;20188;-74
2023/12/18 20:06:53;;;;;;;2.90;1.17;;;;;;;;;;10365293;28;20580;-74
2023/12/18 20:11:53;;;;;;;1.67;1.40;;;;;;;;;;10364947;28;20190;-74
2023/12/18 20:16:54;;;;;;;1.07;1.07;;;;;;;;;;10364514;28;20266;-73
2023/12/18 20:21:54;;;;;;;1.13;1.10;;;;;;;;;;10365287;28;20670;-74
2023/12/18 20:26:55;;;;;;;1.53;1.20;;;;;;;;;;10362209;28;20486;-74
2023/12/18 20:31:55;;;;;;;1.37;1.27;;;;;;;;;;10364731;28;20243;-74
2023/12/18 20:36:55;;;;;;;1.00;1.00;;;;;;;;;;10364313;28;20646;-74
2023/12/18 20:41:56;;;;;;;1.73;1.40;;;;;;;;;;10363404;28;20443;-73
2023/12/18 20:46:57;;;;;;;1.23;1.13;;;;;;;;;;10363749;28;20670;-73
2023/12/18 20:51:57;;;;;;;1.40;1.30;;;;;;;;;;10363856;28;20827;-74
2023/12/18 20:56:57;;;;;;;3.40;1.17;;;;;;;;;;10362798;28;20227;-74
2023/12/18 21:01:58;;;;;;;1.60;1.27;;;;;;;;;;10363627;28;20276;-74
2023/12/18 21:06:58;;;;;;;1.33;1.20;;;;;;;;;;10362683;28;20185;-74
2023/12/18 21:11:58;;;;;;;1.57;1.43;;;;;;;;;;10362724;28;20205;-73
2023/12/18 21:16:58;;;;;;;1.13;1.10;;;;;;;;;;10362139;28;20316;-73
2023/12/18 21:21:58;;;;;;;1.00;1.00;;;;;;;;;;10362814;28;20233;-73
2023/12/18 21:26:59;;;;;;;1.30;1.20;;;;;;;;;;10361275;28;20291;-73
2023/12/18 21:31:59;;;;;;;1.07;0.97;;;;;;;;;;10356826;28;20205;-73
2023/12/18 21:36:59;;;;;;;1.30;1.17;;;;;;;;;;10361746;28;20491;-75
2023/12/18 21:42:00;;;;;;;1.00;1.00;;;;;;;;;;10361238;28;20525;-75
2023/12/18 21:47:00;;;;;;;0.87;0.87;;;;;;;;;;10361833;28;20659;-75
2023/12/18 21:52:01;;;;;;;0.90;0.90;;;;;;;;;;10361424;28;20635;-74
2023/12/18 21:57:02;;;;;;;0.90;0.90;;;;;;;;;;10359956;28;20213;-74
2023/12/18 22:02:02;;;;;;;0.63;0.63;;;;;;;;;;10355041;28;20280;-75
2023/12/18 22:07:03;;;;;;;0.80;0.80;;;;;;;;;;10360748;28;20188;-75
2023/12/18 22:12:06;;;;;;;0.77;0.77;;;;;;;;;;10361453;28;20655;-74
2023/12/18 22:17:06;;;;;;;0.80;0.80;;;;;;;;;;10360767;28;20229;-74
2023/12/18 22:22:06;;;;;;;1.07;0.97;;;;;;;;;;10361372;28;20189;-74
2023/12/18 22:27:06;;;;;;;0.93;0.83;;;;;;;;;;10360292;28;20703;-74
2023/12/18 22:32:06;;;;;;;1.00;0.90;;;;;;;;;;10361148;28;20196;-74
2023/12/18 22:37:07;;;;;;;0.80;0.80;;;;;;;;;;10360004;28;20216;-74
2023/12/18 22:42:07;;;;;;;0.90;0.80;;;;;;;;;;10360579;28;20646;-74
2023/12/18 22:47:08;;;;;;;0.80;0.80;;;;;;;;;;10360786;28;20201;-74
2023/12/18 22:52:08;;;;;;;1.23;0.90;;;;;;;;;;10359246;28;20276;-74
2023/12/18 22:57:08;;;;;;;0.90;0.90;;;;;;;;;;10360212;28;20581;-74
2023/12/18 23:02:08;;;;;;;0.87;0.87;;;;;;;;;;10359148;28;20705;-74
2023/12/18 23:07:08;;;;;;;0.80;0.80;;;;;;;;;;10359808;28;20185;-74
2023/12/18 23:12:08;;;;;;;0.80;0.80;;;;;;;;;;10359950;28;20205;-74
2023/12/18 23:17:09;;;;;;;0.77;0.70;;;;;;;;;;10359785;28;20217;-75
2023/12/18 23:22:10;;;;;;;0.80;0.80;;;;;;;;;;10359834;28;20288;-74
2023/12/18 23:27:10;;;;;;;0.70;0.70;;;;;;;;;;10320765;28;20237;-74
2023/12/18 23:32:10;;;;;;;0.90;0.90;;;;;;;;;;10359879;28;20201;-74
2023/12/18 23:37:10;;;;;;;0.70;0.70;;;;;;;;;;10354060;28;20317;-74
2023/12/18 23:42:11;;;;;;;0.87;0.87;;;;;;;;;;10359671;28;20203;-74
2023/12/18 23:47:11;;;;;;;0.80;0.80;;;;;;;;;;10359170;28;20287;-74
2023/12/18 23:52:13;;;;;;;0.60;0.60;;;;;;;;;;10359301;28;20276;-74
2023/12/18 23:57:13;;;;;;;0.73;0.73;;;;;;;;;;10354458;28;20228;-74
